sensor_id;sensor_type;location;lat;lon;timestamp;P1;durP1;ratioP1;P2;durP2;ratioP2
8704;SDS011;4389;41.932;25.904;2023-05-07T00:00:20;6.93;;;4.17;;
8704;SDS011;4389;41.932;25.904;2023-05-07T00:02:48;6.63;;;4.50;;
8704;SDS011;4389;41.932;25.904;2023-05-07T00:05:15;8.67;;;4.23;;
8704;SDS011;4389;41.932;25.904;2023-05-07T00:07:42;6.93;;;4.10;;
8704;SDS011;4389;41.932;25.904;2023-05-07T00:10:09;11.10;;;4.27;;
8704;SDS011;4389;41.932;25.904;2023-05-07T00:12:37;9.03;;;4.07;;
8704;SDS011;4389;41.932;25.904;2023-05-07T00:15:04;6.20;;;3.77;;
8704;SDS011;4389;41.932;25.904;2023-05-07T00:17:32;7.23;;;4.10;;
8704;SDS011;4389;41.932;25.904;2023-05-07T00:20:00;11.50;;;4.10;;
8704;SDS011;4389;41.932;25.904;2023-05-07T00:22:28;4.30;;;3.90;;
8704;SDS011;4389;41.932;25.904;2023-05-07T00:24:57;5.47;;;4.47;;
8704;SDS011;4389;41.932;25.904;2023-05-07T00:27:24;11.53;;;5.33;;
8704;SDS011;4389;41.932;25.904;2023-05-07T00:29:51;6.10;;;4.60;;
8704;SDS011;4389;41.932;25.904;2023-05-07T00:32:18;12.20;;;5.20;;
8704;SDS011;4389;41.932;25.904;2023-05-07T00:34:45;63.23;;;7.83;;
8704;SDS011;4389;41.932;25.904;2023-05-07T00:37:13;186.23;;;18.20;;
8704;SDS011;4389;41.932;25.904;2023-05-07T00:39:39;29.50;;;6.23;;
8704;SDS011;4389;41.932;25.904;2023-05-07T00:42:06;17.10;;;9.63;;
8704;SDS011;4389;41.932;25.904;2023-05-07T00:44:34;12.30;;;4.20;;
8704;SDS011;4389;41.932;25.904;2023-05-07T00:47:01;8.50;;;3.80;;
8704;SDS011;4389;41.932;25.904;2023-05-07T00:49:32;7.03;;;3.90;;
8704;SDS011;4389;41.932;25.904;2023-05-07T00:52:04;6.70;;;4.97;;
8704;SDS011;4389;41.932;25.904;2023-05-07T00:54:33;8.37;;;4.67;;
8704;SDS011;4389;41.932;25.904;2023-05-07T00:57:01;9.47;;;5.23;;
8704;SDS011;4389;41.932;25.904;2023-05-07T00:59:28;7.23;;;4.70;;
8704;SDS011;4389;41.932;25.904;2023-05-07T01:01:56;8.70;;;4.70;;
8704;SDS011;4389;41.932;25.904;2023-05-07T01:04:23;8.60;;;4.43;;
8704;SDS011;4389;41.932;25.904;2023-05-07T01:06:50;10.67;;;5.63;;
8704;SDS011;4389;41.932;25.904;2023-05-07T01:09:17;8.33;;;5.40;;
8704;SDS011;4389;41.932;25.904;2023-05-07T01:11:47;11.17;;;5.30;;
8704;SDS011;4389;41.932;25.904;2023-05-07T01:14:16;10.33;;;4.87;;
8704;SDS011;4389;41.932;25.904;2023-05-07T01:16:44;7.13;;;5.57;;
8704;SDS011;4389;41.932;25.904;2023-05-07T01:19:11;8.47;;;5.37;;
8704;SDS011;4389;41.932;25.904;2023-05-07T01:21:41;7.70;;;5.23;;
8704;SDS011;4389;41.932;25.904;2023-05-07T01:24:14;7.40;;;4.93;;
8704;SDS011;4389;41.932;25.904;2023-05-07T01:26:41;9.10;;;5.63;;
8704;SDS011;4389;41.932;25.904;2023-05-07T01:29:08;7.80;;;5.13;;
8704;SDS011;4389;41.932;25.904;2023-05-07T01:31:35;11.23;;;5.93;;
8704;SDS011;4389;41.932;25.904;2023-05-07T01:34:03;56.67;;;7.83;;
8704;SDS011;4389;41.932;25.904;2023-05-07T01:36:33;9.03;;;5.03;;
8704;SDS011;4389;41.932;25.904;2023-05-07T01:39:01;11.23;;;5.87;;
8704;SDS011;4389;41.932;25.904;2023-05-07T01:41:30;9.57;;;6.13;;
8704;SDS011;4389;41.932;25.904;2023-05-07T01:43:57;7.67;;;6.40;;
8704;SDS011;4389;41.932;25.904;2023-05-07T01:46:26;8.43;;;5.40;;
8704;SDS011;4389;41.932;25.904;2023-05-07T01:48:53;8.40;;;6.13;;
8704;SDS011;4389;41.932;25.904;2023-05-07T01:51:20;10.63;;;5.97;;
8704;SDS011;4389;41.932;25.904;2023-05-07T01:53:47;7.70;;;5.90;;
8704;SDS011;4389;41.932;25.904;2023-05-07T01:56:16;10.07;;;6.53;;
8704;SDS011;4389;41.932;25.904;2023-05-07T01:58:45;10.20;;;6.07;;
8704;SDS011;4389;41.932;25.904;2023-05-07T02:01:12;7.83;;;6.30;;
8704;SDS011;4389;41.932;25.904;2023-05-07T02:03:39;8.93;;;6.70;;
8704;SDS011;4389;41.932;25.904;2023-05-07T02:06:06;6.83;;;6.13;;
8704;SDS011;4389;41.932;25.904;2023-05-07T02:08:33;8.20;;;6.47;;
8704;SDS011;4389;41.932;25.904;2023-05-07T02:11:00;10.87;;;7.50;;
8704;SDS011;4389;41.932;25.904;2023-05-07T02:13:28;11.13;;;6.40;;
8704;SDS011;4389;41.932;25.904;2023-05-07T02:15:57;10.50;;;7.03;;
8704;SDS011;4389;41.932;25.904;2023-05-07T02:18:24;11.47;;;6.73;;
8704;SDS011;4389;41.932;25.904;2023-05-07T02:20:51;25.83;;;7.73;;
8704;SDS011;4389;41.932;25.904;2023-05-07T02:23:18;13.43;;;6.90;;
8704;SDS011;4389;41.932;25.904;2023-05-07T02:25:45;7.30;;;6.33;;
8704;SDS011;4389;41.932;25.904;2023-05-07T02:28:12;7.80;;;6.80;;
8704;SDS011;4389;41.932;25.904;2023-05-07T02:30:39;9.83;;;7.30;;
8704;SDS011;4389;41.932;25.904;2023-05-07T02:33:07;9.47;;;7.30;;
8704;SDS011;4389;41.932;25.904;2023-05-07T02:35:34;8.33;;;7.00;;
8704;SDS011;4389;41.932;25.904;2023-05-07T02:38:01;8.10;;;7.10;;
8704;SDS011;4389;41.932;25.904;2023-05-07T02:40:28;12.13;;;7.53;;
8704;SDS011;4389;41.932;25.904;2023-05-07T02:42:58;11.20;;;6.47;;
8704;SDS011;4389;41.932;25.904;2023-05-07T02:45:25;8.30;;;7.00;;
8704;SDS011;4389;41.932;25.904;2023-05-07T02:47:52;9.20;;;7.17;;
8704;SDS011;4389;41.932;25.904;2023-05-07T02:50:20;8.17;;;7.23;;
8704;SDS011;4389;41.932;25.904;2023-05-07T02:52:47;10.47;;;7.53;;
8704;SDS011;4389;41.932;25.904;2023-05-07T02:55:14;8.90;;;7.17;;
8704;SDS011;4389;41.932;25.904;2023-05-07T02:57:41;16.17;;;6.90;;
8704;SDS011;4389;41.932;25.904;2023-05-07T03:00:11;8.63;;;7.43;;
8704;SDS011;4389;41.932;25.904;2023-05-07T03:02:39;14.17;;;7.17;;
8704;SDS011;4389;41.932;25.904;2023-05-07T03:05:06;12.77;;;6.73;;
8704;SDS011;4389;41.932;25.904;2023-05-07T03:07:34;10.33;;;6.57;;
8704;SDS011;4389;41.932;25.904;2023-05-07T03:10:01;7.80;;;6.60;;
8704;SDS011;4389;41.932;25.904;2023-05-07T03:12:29;9.07;;;6.03;;
8704;SDS011;4389;41.932;25.904;2023-05-07T03:14:56;6.80;;;5.60;;
8704;SDS011;4389;41.932;25.904;2023-05-07T03:17:23;7.23;;;5.67;;
8704;SDS011;4389;41.932;25.904;2023-05-07T03:19:50;9.27;;;5.87;;
8704;SDS011;4389;41.932;25.904;2023-05-07T03:22:17;6.80;;;6.10;;
8704;SDS011;4389;41.932;25.904;2023-05-07T03:24:45;7.63;;;5.10;;
8704;SDS011;4389;41.932;25.904;2023-05-07T03:27:12;8.17;;;4.80;;
8704;SDS011;4389;41.932;25.904;2023-05-07T03:29:39;6.63;;;4.70;;
8704;SDS011;4389;41.932;25.904;2023-05-07T03:32:08;9.57;;;4.83;;
8704;SDS011;4389;41.932;25.904;2023-05-07T03:34:35;5.33;;;4.50;;
8704;SDS011;4389;41.932;25.904;2023-05-07T03:37:02;7.10;;;4.40;;
8704;SDS011;4389;41.932;25.904;2023-05-07T03:39:29;9.17;;;4.60;;
8704;SDS011;4389;41.932;25.904;2023-05-07T03:41:57;6.47;;;4.50;;
8704;SDS011;4389;41.932;25.904;2023-05-07T03:44:24;4.57;;;3.63;;
8704;SDS011;4389;41.932;25.904;2023-05-07T03:46:51;9.10;;;5.00;;
8704;SDS011;4389;41.932;25.904;2023-05-07T03:49:18;6.97;;;4.40;;
8704;SDS011;4389;41.932;25.904;2023-05-07T03:51:45;12.37;;;6.33;;
8704;SDS011;4389;41.932;25.904;2023-05-07T03:54:11;54.10;;;9.73;;
8704;SDS011;4389;41.932;25.904;2023-05-07T03:56:38;5.63;;;4.27;;
8704;SDS011;4389;41.932;25.904;2023-05-07T03:59:06;7.23;;;4.50;;
8704;SDS011;4389;41.932;25.904;2023-05-07T04:01:33;8.27;;;4.97;;
8704;SDS011;4389;41.932;25.904;2023-05-07T04:04:00;8.83;;;4.50;;
8704;SDS011;4389;41.932;25.904;2023-05-07T04:06:28;57.47;;;7.83;;
8704;SDS011;4389;41.932;25.904;2023-05-07T04:08:55;6.00;;;3.90;;
8704;SDS011;4389;41.932;25.904;2023-05-07T04:11:22;9.33;;;4.37;;
8704;SDS011;4389;41.932;25.904;2023-05-07T04:13:49;6.93;;;4.20;;
8704;SDS011;4389;41.932;25.904;2023-05-07T04:16:17;13.80;;;4.60;;
8704;SDS011;4389;41.932;25.904;2023-05-07T04:18:44;6.63;;;4.60;;
8704;SDS011;4389;41.932;25.904;2023-05-07T04:21:14;8.37;;;4.50;;
8704;SDS011;4389;41.932;25.904;2023-05-07T04:23:41;5.90;;;4.17;;
8704;SDS011;4389;41.932;25.904;2023-05-07T04:26:08;39.53;;;7.00;;
8704;SDS011;4389;41.932;25.904;2023-05-07T04:28:35;10.87;;;4.00;;
8704;SDS011;4389;41.932;25.904;2023-05-07T04:31:02;7.43;;;4.40;;
8704;SDS011;4389;41.932;25.904;2023-05-07T04:33:30;10.10;;;4.67;;
8704;SDS011;4389;41.932;25.904;2023-05-07T04:35:58;6.63;;;4.30;;
8704;SDS011;4389;41.932;25.904;2023-05-07T04:38:27;6.67;;;4.33;;
8704;SDS011;4389;41.932;25.904;2023-05-07T04:40:55;8.57;;;4.40;;
8704;SDS011;4389;41.932;25.904;2023-05-07T04:43:22;8.20;;;4.87;;
8704;SDS011;4389;41.932;25.904;2023-05-07T04:45:49;5.23;;;4.33;;
8704;SDS011;4389;41.932;25.904;2023-05-07T04:48:16;5.73;;;4.53;;
8704;SDS011;4389;41.932;25.904;2023-05-07T04:50:46;9.70;;;5.43;;
8704;SDS011;4389;41.932;25.904;2023-05-07T04:53:14;9.97;;;7.20;;
8704;SDS011;4389;41.932;25.904;2023-05-07T04:55:40;16.90;;;5.77;;
8704;SDS011;4389;41.932;25.904;2023-05-07T04:58:07;8.17;;;5.93;;
8704;SDS011;4389;41.932;25.904;2023-05-07T05:00:34;5.80;;;5.27;;
8704;SDS011;4389;41.932;25.904;2023-05-07T05:03:01;12.33;;;5.87;;
8704;SDS011;4389;41.932;25.904;2023-05-07T05:05:28;10.43;;;6.70;;
8704;SDS011;4389;41.932;25.904;2023-05-07T05:07:56;9.23;;;6.30;;
8704;SDS011;4389;41.932;25.904;2023-05-07T05:10:23;10.73;;;6.03;;
8704;SDS011;4389;41.932;25.904;2023-05-07T05:12:51;9.40;;;5.77;;
8704;SDS011;4389;41.932;25.904;2023-05-07T05:15:18;11.80;;;6.83;;
8704;SDS011;4389;41.932;25.904;2023-05-07T05:17:44;13.47;;;7.00;;
8704;SDS011;4389;41.932;25.904;2023-05-07T05:20:12;13.93;;;6.70;;
8704;SDS011;4389;41.932;25.904;2023-05-07T05:22:39;9.40;;;6.57;;
8704;SDS011;4389;41.932;25.904;2023-05-07T05:25:08;7.07;;;5.90;;
8704;SDS011;4389;41.932;25.904;2023-05-07T05:27:35;15.20;;;6.77;;
8704;SDS011;4389;41.932;25.904;2023-05-07T05:30:02;7.37;;;6.53;;
8704;SDS011;4389;41.932;25.904;2023-05-07T05:32:30;10.63;;;6.27;;
8704;SDS011;4389;41.932;25.904;2023-05-07T05:34:57;10.27;;;6.17;;
8704;SDS011;4389;41.932;25.904;2023-05-07T05:37:24;9.63;;;6.20;;
8704;SDS011;4389;41.932;25.904;2023-05-07T05:39:51;10.27;;;6.60;;
8704;SDS011;4389;41.932;25.904;2023-05-07T05:42:21;11.03;;;7.10;;
8704;SDS011;4389;41.932;25.904;2023-05-07T05:44:48;7.10;;;6.10;;
8704;SDS011;4389;41.932;25.904;2023-05-07T05:47:15;16.03;;;7.07;;
8704;SDS011;4389;41.932;25.904;2023-05-07T05:49:42;10.77;;;6.33;;
8704;SDS011;4389;41.932;25.904;2023-05-07T05:52:12;8.80;;;6.57;;
8704;SDS011;4389;41.932;25.904;2023-05-07T05:54:39;10.03;;;6.37;;
8704;SDS011;4389;41.932;25.904;2023-05-07T05:57:06;17.60;;;6.70;;
8704;SDS011;4389;41.932;25.904;2023-05-07T05:59:34;7.53;;;6.50;;
8704;SDS011;4389;41.932;25.904;2023-05-07T06:02:01;12.17;;;6.10;;
8704;SDS011;4389;41.932;25.904;2023-05-07T06:04:29;9.77;;;5.47;;
8704;SDS011;4389;41.932;25.904;2023-05-07T06:06:55;9.60;;;5.60;;
8704;SDS011;4389;41.932;25.904;2023-05-07T06:09:22;6.03;;;4.87;;
8704;SDS011;4389;41.932;25.904;2023-05-07T06:11:49;12.00;;;5.10;;
8704;SDS011;4389;41.932;25.904;2023-05-07T06:14:16;27.80;;;5.10;;
8704;SDS011;4389;41.932;25.904;2023-05-07T06:16:44;8.00;;;4.70;;
8704;SDS011;4389;41.932;25.904;2023-05-07T06:19:11;7.87;;;4.50;;
8704;SDS011;4389;41.932;25.904;2023-05-07T06:21:38;10.63;;;4.00;;
8704;SDS011;4389;41.932;25.904;2023-05-07T06:24:05;7.83;;;4.93;;
8704;SDS011;4389;41.932;25.904;2023-05-07T06:26:32;8.60;;;4.60;;
8704;SDS011;4389;41.932;25.904;2023-05-07T06:28:59;12.80;;;4.87;;
8704;SDS011;4389;41.932;25.904;2023-05-07T06:31:29;6.53;;;4.10;;
8704;SDS011;4389;41.932;25.904;2023-05-07T06:33:58;7.40;;;3.90;;
8704;SDS011;4389;41.932;25.904;2023-05-07T06:36:25;6.10;;;3.57;;
8704;SDS011;4389;41.932;25.904;2023-05-07T06:38:52;7.23;;;3.27;;
8704;SDS011;4389;41.932;25.904;2023-05-07T06:41:19;6.57;;;3.33;;
8704;SDS011;4389;41.932;25.904;2023-05-07T06:43:46;7.23;;;3.33;;
8704;SDS011;4389;41.932;25.904;2023-05-07T06:46:13;8.67;;;3.77;;
8704;SDS011;4389;41.932;25.904;2023-05-07T06:48:40;4.20;;;2.13;;
8704;SDS011;4389;41.932;25.904;2023-05-07T06:51:08;2.63;;;2.00;;
8704;SDS011;4389;41.932;25.904;2023-05-07T06:53:35;4.63;;;2.13;;
8704;SDS011;4389;41.932;25.904;2023-05-07T06:56:02;3.77;;;2.10;;
8704;SDS011;4389;41.932;25.904;2023-05-07T06:58:29;3.43;;;2.17;;
8704;SDS011;4389;41.932;25.904;2023-05-07T07:00:56;2.97;;;2.17;;
8704;SDS011;4389;41.932;25.904;2023-05-07T07:03:23;2.83;;;1.87;;
8704;SDS011;4389;41.932;25.904;2023-05-07T07:05:51;6.60;;;2.10;;
8704;SDS011;4389;41.932;25.904;2023-05-07T07:08:19;2.37;;;2.17;;
8704;SDS011;4389;41.932;25.904;2023-05-07T07:10:47;2.33;;;1.93;;
8704;SDS011;4389;41.932;25.904;2023-05-07T07:13:14;6.63;;;2.23;;
8704;SDS011;4389;41.932;25.904;2023-05-07T07:15:41;3.70;;;2.03;;
8704;SDS011;4389;41.932;25.904;2023-05-07T07:18:08;5.17;;;2.47;;
8704;SDS011;4389;41.932;25.904;2023-05-07T07:20:35;3.00;;;2.30;;
8704;SDS011;4389;41.932;25.904;2023-05-07T07:23:02;3.03;;;2.33;;
8704;SDS011;4389;41.932;25.904;2023-05-07T07:25:30;2.77;;;2.07;;
8704;SDS011;4389;41.932;25.904;2023-05-07T07:27:57;6.77;;;2.40;;
8704;SDS011;4389;41.932;25.904;2023-05-07T07:30:24;6.50;;;2.10;;
8704;SDS011;4389;41.932;25.904;2023-05-07T07:32:52;5.17;;;1.90;;
8704;SDS011;4389;41.932;25.904;2023-05-07T07:35:19;10.63;;;2.40;;
8704;SDS011;4389;41.932;25.904;2023-05-07T07:37:46;4.57;;;2.10;;
8704;SDS011;4389;41.932;25.904;2023-05-07T07:40:15;4.43;;;2.20;;
8704;SDS011;4389;41.932;25.904;2023-05-07T07:42:43;3.00;;;2.10;;
8704;SDS011;4389;41.932;25.904;2023-05-07T07:45:10;3.73;;;1.90;;
8704;SDS011;4389;41.932;25.904;2023-05-07T07:47:37;5.80;;;2.73;;
8704;SDS011;4389;41.932;25.904;2023-05-07T07:50:04;3.33;;;2.10;;
8704;SDS011;4389;41.932;25.904;2023-05-07T07:52:32;8.80;;;2.50;;
8704;SDS011;4389;41.932;25.904;2023-05-07T07:54:59;7.13;;;2.07;;
8704;SDS011;4389;41.932;25.904;2023-05-07T07:57:26;3.27;;;2.00;;
8704;SDS011;4389;41.932;25.904;2023-05-07T07:59:54;10.37;;;2.40;;
8704;SDS011;4389;41.932;25.904;2023-05-07T08:02:21;2.53;;;1.97;;
8704;SDS011;4389;41.932;25.904;2023-05-07T08:04:48;6.43;;;2.47;;
8704;SDS011;4389;41.932;25.904;2023-05-07T08:07:15;3.30;;;1.90;;
8704;SDS011;4389;41.932;25.904;2023-05-07T08:09:43;4.87;;;2.00;;
8704;SDS011;4389;41.932;25.904;2023-05-07T08:12:10;2.40;;;1.90;;
8704;SDS011;4389;41.932;25.904;2023-05-07T08:14:37;3.33;;;2.30;;
8704;SDS011;4389;41.932;25.904;2023-05-07T08:17:05;2.77;;;1.90;;
8704;SDS011;4389;41.932;25.904;2023-05-07T08:19:32;5.40;;;2.33;;
8704;SDS011;4389;41.932;25.904;2023-05-07T08:21:59;5.30;;;2.37;;
8704;SDS011;4389;41.932;25.904;2023-05-07T08:24:26;6.73;;;2.23;;
8704;SDS011;4389;41.932;25.904;2023-05-07T08:26:53;7.27;;;2.77;;
8704;SDS011;4389;41.932;25.904;2023-05-07T08:29:20;3.10;;;2.20;;
8704;SDS011;4389;41.932;25.904;2023-05-07T08:31:47;4.63;;;2.07;;
8704;SDS011;4389;41.932;25.904;2023-05-07T08:34:15;4.47;;;2.03;;
8704;SDS011;4389;41.932;25.904;2023-05-07T08:36:42;9.67;;;2.37;;
8704;SDS011;4389;41.932;25.904;2023-05-07T08:39:09;3.23;;;2.00;;
8704;SDS011;4389;41.932;25.904;2023-05-07T08:41:36;2.80;;;1.90;;
8704;SDS011;4389;41.932;25.904;2023-05-07T08:44:03;5.23;;;2.27;;
8704;SDS011;4389;41.932;25.904;2023-05-07T08:46:32;2.87;;;1.80;;
8704;SDS011;4389;41.932;25.904;2023-05-07T08:49:00;4.87;;;2.07;;
8704;SDS011;4389;41.932;25.904;2023-05-07T08:51:28;2.60;;;1.63;;
8704;SDS011;4389;41.932;25.904;2023-05-07T08:53:56;3.13;;;1.83;;
8704;SDS011;4389;41.932;25.904;2023-05-07T08:56:24;2.30;;;1.73;;
8704;SDS011;4389;41.932;25.904;2023-05-07T08:58:51;2.17;;;1.70;;
8704;SDS011;4389;41.932;25.904;2023-05-07T09:01:21;2.33;;;1.80;;
8704;SDS011;4389;41.932;25.904;2023-05-07T09:03:49;3.27;;;2.10;;
8704;SDS011;4389;41.932;25.904;2023-05-07T09:06:16;11.17;;;2.67;;
8704;SDS011;4389;41.932;25.904;2023-05-07T09:08:45;2.77;;;1.60;;
8704;SDS011;4389;41.932;25.904;2023-05-07T09:11:15;3.07;;;1.90;;
8704;SDS011;4389;41.932;25.904;2023-05-07T09:13:42;4.43;;;2.03;;
8704;SDS011;4389;41.932;25.904;2023-05-07T09:16:10;2.57;;;2.00;;
8704;SDS011;4389;41.932;25.904;2023-05-07T09:18:40;6.70;;;1.97;;
8704;SDS011;4389;41.932;25.904;2023-05-07T09:21:09;5.83;;;1.93;;
8704;SDS011;4389;41.932;25.904;2023-05-07T09:23:36;3.67;;;2.20;;
8704;SDS011;4389;41.932;25.904;2023-05-07T09:26:04;7.53;;;1.93;;
8704;SDS011;4389;41.932;25.904;2023-05-07T09:28:37;4.00;;;2.10;;
8704;SDS011;4389;41.932;25.904;2023-05-07T09:31:06;4.30;;;1.73;;
8704;SDS011;4389;41.932;25.904;2023-05-07T09:33:33;7.97;;;2.50;;
8704;SDS011;4389;41.932;25.904;2023-05-07T09:36:02;3.87;;;2.13;;
8704;SDS011;4389;41.932;25.904;2023-05-07T09:38:30;1.97;;;1.77;;
8704;SDS011;4389;41.932;25.904;2023-05-07T09:41:05;6.43;;;2.10;;
8704;SDS011;4389;41.932;25.904;2023-05-07T09:43:33;5.33;;;2.00;;
8704;SDS011;4389;41.932;25.904;2023-05-07T09:46:02;2.50;;;1.87;;
8704;SDS011;4389;41.932;25.904;2023-05-07T09:48:33;10.13;;;3.03;;
8704;SDS011;4389;41.932;25.904;2023-05-07T09:51:03;7.73;;;1.90;;
8704;SDS011;4389;41.932;25.904;2023-05-07T09:53:44;2.57;;;1.80;;
8704;SDS011;4389;41.932;25.904;2023-05-07T09:56:14;5.53;;;1.83;;
8704;SDS011;4389;41.932;25.904;2023-05-07T09:58:42;2.30;;;1.80;;
8704;SDS011;4389;41.932;25.904;2023-05-07T10:01:10;8.50;;;2.10;;
8704;SDS011;4389;41.932;25.904;2023-05-07T10:03:39;5.23;;;2.00;;
8704;SDS011;4389;41.932;25.904;2023-05-07T10:06:08;3.37;;;1.83;;
8704;SDS011;4389;41.932;25.904;2023-05-07T10:08:35;6.60;;;2.13;;
8704;SDS011;4389;41.932;25.904;2023-05-07T10:11:03;5.97;;;2.40;;
8704;SDS011;4389;41.932;25.904;2023-05-07T10:13:32;3.80;;;1.70;;
8704;SDS011;4389;41.932;25.904;2023-05-07T10:16:01;5.10;;;1.83;;
8704;SDS011;4389;41.932;25.904;2023-05-07T10:18:29;2.37;;;1.90;;
8704;SDS011;4389;41.932;25.904;2023-05-07T10:20:59;2.33;;;1.73;;
8704;SDS011;4389;41.932;25.904;2023-05-07T10:23:31;10.60;;;2.20;;
8704;SDS011;4389;41.932;25.904;2023-05-07T10:25:59;5.37;;;2.03;;
8704;SDS011;4389;41.932;25.904;2023-05-07T10:28:30;6.00;;;1.77;;
8704;SDS011;4389;41.932;25.904;2023-05-07T10:31:05;2.83;;;1.50;;
8704;SDS011;4389;41.932;25.904;2023-05-07T10:33:41;2.63;;;1.87;;
8704;SDS011;4389;41.932;25.904;2023-05-07T10:36:11;3.87;;;1.70;;
8704;SDS011;4389;41.932;25.904;2023-05-07T10:38:38;2.27;;;1.80;;
8704;SDS011;4389;41.932;25.904;2023-05-07T10:41:06;9.40;;;1.90;;
8704;SDS011;4389;41.932;25.904;2023-05-07T10:43:41;3.63;;;1.97;;
8704;SDS011;4389;41.932;25.904;2023-05-07T10:46:09;2.73;;;1.60;;
8704;SDS011;4389;41.932;25.904;2023-05-07T10:48:49;4.23;;;2.03;;
8704;SDS011;4389;41.932;25.904;2023-05-07T10:51:33;4.93;;;1.63;;
8704;SDS011;4389;41.932;25.904;2023-05-07T10:54:20;3.73;;;1.70;;
8704;SDS011;4389;41.932;25.904;2023-05-07T10:56:49;6.90;;;2.10;;
8704;SDS011;4389;41.932;25.904;2023-05-07T10:59:31;2.57;;;1.60;;
8704;SDS011;4389;41.932;25.904;2023-05-07T11:02:13;3.30;;;1.70;;
8704;SDS011;4389;41.932;25.904;2023-05-07T11:04:40;3.47;;;1.67;;
8704;SDS011;4389;41.932;25.904;2023-05-07T11:10:01;2.80;;;1.77;;
8704;SDS011;4389;41.932;25.904;2023-05-07T11:12:49;3.93;;;1.80;;
8704;SDS011;4389;41.932;25.904;2023-05-07T11:18:16;3.10;;;1.70;;
8704;SDS011;4389;41.932;25.904;2023-05-07T11:20:44;2.40;;;1.77;;
8704;SDS011;4389;41.932;25.904;2023-05-07T11:26:27;3.20;;;1.60;;
8704;SDS011;4389;41.932;25.904;2023-05-07T11:28:55;4.90;;;1.80;;
8704;SDS011;4389;41.932;25.904;2023-05-07T11:31:24;5.20;;;2.00;;
8704;SDS011;4389;41.932;25.904;2023-05-07T11:33:53;1.70;;;1.60;;
8704;SDS011;4389;41.932;25.904;2023-05-07T11:36:21;2.07;;;1.50;;
8704;SDS011;4389;41.932;25.904;2023-05-07T11:38:49;1.93;;;1.77;;
8704;SDS011;4389;41.932;25.904;2023-05-07T11:41:16;2.77;;;1.70;;
8704;SDS011;4389;41.932;25.904;2023-05-07T11:43:57;3.10;;;1.90;;
8704;SDS011;4389;41.932;25.904;2023-05-07T11:46:27;3.23;;;2.13;;
8704;SDS011;4389;41.932;25.904;2023-05-07T11:48:54;6.57;;;2.27;;
8704;SDS011;4389;41.932;25.904;2023-05-07T11:51:22;3.97;;;1.73;;
8704;SDS011;4389;41.932;25.904;2023-05-07T11:53:51;4.63;;;2.03;;
8704;SDS011;4389;41.932;25.904;2023-05-07T11:56:18;2.10;;;1.73;;
8704;SDS011;4389;41.932;25.904;2023-05-07T11:58:46;3.97;;;1.80;;
8704;SDS011;4389;41.932;25.904;2023-05-07T12:01:15;2.97;;;1.80;;
8704;SDS011;4389;41.932;25.904;2023-05-07T12:03:45;4.83;;;1.60;;
8704;SDS011;4389;41.932;25.904;2023-05-07T12:06:13;4.70;;;2.00;;
8704;SDS011;4389;41.932;25.904;2023-05-07T12:08:41;4.73;;;1.80;;
8704;SDS011;4389;41.932;25.904;2023-05-07T12:11:09;2.03;;;1.77;;
8704;SDS011;4389;41.932;25.904;2023-05-07T12:13:38;2.17;;;1.57;;
8704;SDS011;4389;41.932;25.904;2023-05-07T12:16:05;3.07;;;2.10;;
8704;SDS011;4389;41.932;25.904;2023-05-07T12:18:34;4.07;;;1.60;;
8704;SDS011;4389;41.932;25.904;2023-05-07T12:21:03;2.37;;;1.93;;
8704;SDS011;4389;41.932;25.904;2023-05-07T12:23:31;2.87;;;1.97;;
8704;SDS011;4389;41.932;25.904;2023-05-07T12:25:58;4.83;;;1.77;;
8704;SDS011;4389;41.932;25.904;2023-05-07T12:28:26;2.10;;;1.90;;
8704;SDS011;4389;41.932;25.904;2023-05-07T12:30:53;4.60;;;1.70;;
8704;SDS011;4389;41.932;25.904;2023-05-07T12:33:23;4.50;;;1.73;;
8704;SDS011;4389;41.932;25.904;2023-05-07T12:35:52;2.43;;;1.80;;
8704;SDS011;4389;41.932;25.904;2023-05-07T12:38:21;3.67;;;1.70;;
8704;SDS011;4389;41.932;25.904;2023-05-07T12:40:49;6.07;;;1.70;;
8704;SDS011;4389;41.932;25.904;2023-05-07T12:43:17;4.60;;;1.60;;
8704;SDS011;4389;41.932;25.904;2023-05-07T12:45:45;4.70;;;1.70;;
8704;SDS011;4389;41.932;25.904;2023-05-07T12:48:13;4.03;;;3.50;;
8704;SDS011;4389;41.932;25.904;2023-05-07T12:50:40;2.10;;;1.70;;
8704;SDS011;4389;41.932;25.904;2023-05-07T12:53:08;3.83;;;1.50;;
8704;SDS011;4389;41.932;25.904;2023-05-07T12:55:42;4.73;;;1.87;;
8704;SDS011;4389;41.932;25.904;2023-05-07T12:58:14;3.27;;;1.57;;
8704;SDS011;4389;41.932;25.904;2023-05-07T13:00:42;4.83;;;1.70;;
8704;SDS011;4389;41.932;25.904;2023-05-07T13:03:10;5.53;;;2.13;;
8704;SDS011;4389;41.932;25.904;2023-05-07T13:05:37;2.17;;;1.70;;
8704;SDS011;4389;41.932;25.904;2023-05-07T13:08:04;2.43;;;1.70;;
8704;SDS011;4389;41.932;25.904;2023-05-07T13:10:31;3.23;;;1.63;;
8704;SDS011;4389;41.932;25.904;2023-05-07T13:13:00;7.80;;;1.97;;
8704;SDS011;4389;41.932;25.904;2023-05-07T13:15:27;2.43;;;1.60;;
8704;SDS011;4389;41.932;25.904;2023-05-07T13:17:54;2.13;;;1.60;;
8704;SDS011;4389;41.932;25.904;2023-05-07T13:20:21;3.13;;;2.00;;
8704;SDS011;4389;41.932;25.904;2023-05-07T13:22:48;7.43;;;1.50;;
8704;SDS011;4389;41.932;25.904;2023-05-07T13:25:15;6.77;;;2.00;;
8704;SDS011;4389;41.932;25.904;2023-05-07T13:27:42;2.40;;;2.17;;
8704;SDS011;4389;41.932;25.904;2023-05-07T13:30:11;6.43;;;1.67;;
8704;SDS011;4389;41.932;25.904;2023-05-07T13:32:38;3.70;;;2.00;;
8704;SDS011;4389;41.932;25.904;2023-05-07T13:35:05;1.93;;;1.73;;
8704;SDS011;4389;41.932;25.904;2023-05-07T13:37:33;6.88;;;2.00;;
8704;SDS011;4389;41.932;25.904;2023-05-07T13:39:59;2.10;;;1.73;;
8704;SDS011;4389;41.932;25.904;2023-05-07T13:42:26;3.67;;;1.80;;
8704;SDS011;4389;41.932;25.904;2023-05-07T13:44:56;4.67;;;1.70;;
8704;SDS011;4389;41.932;25.904;2023-05-07T13:47:24;3.53;;;1.77;;
8704;SDS011;4389;41.932;25.904;2023-05-07T13:49:51;5.85;;;1.65;;
8704;SDS011;4389;41.932;25.904;2023-05-07T13:52:18;3.50;;;1.70;;
8704;SDS011;4389;41.932;25.904;2023-05-07T13:54:45;3.40;;;1.53;;
8704;SDS011;4389;41.932;25.904;2023-05-07T13:57:12;2.63;;;1.70;;
8704;SDS011;4389;41.932;25.904;2023-05-07T13:59:39;4.50;;;2.07;;
8704;SDS011;4389;41.932;25.904;2023-05-07T14:02:06;2.47;;;1.90;;
8704;SDS011;4389;41.932;25.904;2023-05-07T14:04:37;5.90;;;2.20;;
8704;SDS011;4389;41.932;25.904;2023-05-07T14:07:04;3.17;;;1.70;;
8704;SDS011;4389;41.932;25.904;2023-05-07T14:09:31;3.80;;;1.70;;
8704;SDS011;4389;41.932;25.904;2023-05-07T14:11:58;2.57;;;1.80;;
8704;SDS011;4389;41.932;25.904;2023-05-07T14:14:25;9.40;;;2.47;;
8704;SDS011;4389;41.932;25.904;2023-05-07T14:16:52;3.17;;;2.00;;
8704;SDS011;4389;41.932;25.904;2023-05-07T14:19:19;1.90;;;1.67;;
8704;SDS011;4389;41.932;25.904;2023-05-07T14:21:49;3.60;;;2.17;;
8704;SDS011;4389;41.932;25.904;2023-05-07T14:24:16;4.33;;;1.63;;
8704;SDS011;4389;41.932;25.904;2023-05-07T14:26:42;2.53;;;2.13;;
8704;SDS011;4389;41.932;25.904;2023-05-07T14:29:10;6.53;;;2.03;;
8704;SDS011;4389;41.932;25.904;2023-05-07T14:31:37;6.00;;;1.80;;
8704;SDS011;4389;41.932;25.904;2023-05-07T14:34:04;3.63;;;1.60;;
8704;SDS011;4389;41.932;25.904;2023-05-07T14:36:31;3.13;;;2.00;;
8704;SDS011;4389;41.932;25.904;2023-05-07T14:38:59;3.70;;;1.90;;
8704;SDS011;4389;41.932;25.904;2023-05-07T14:41:26;4.13;;;1.90;;
8704;SDS011;4389;41.932;25.904;2023-05-07T14:43:53;4.65;;;2.05;;
8704;SDS011;4389;41.932;25.904;2023-05-07T14:46:20;2.10;;;1.43;;
8704;SDS011;4389;41.932;25.904;2023-05-07T14:48:47;6.97;;;2.00;;
8704;SDS011;4389;41.932;25.904;2023-05-07T14:51:14;5.77;;;2.10;;
8704;SDS011;4389;41.932;25.904;2023-05-07T14:53:40;4.40;;;1.73;;
8704;SDS011;4389;41.932;25.904;2023-05-07T14:56:09;3.17;;;2.03;;
8704;SDS011;4389;41.932;25.904;2023-05-07T14:58:36;2.63;;;1.83;;
8704;SDS011;4389;41.932;25.904;2023-05-07T15:01:03;3.03;;;2.13;;
8704;SDS011;4389;41.932;25.904;2023-05-07T15:03:30;2.47;;;1.80;;
8704;SDS011;4389;41.932;25.904;2023-05-07T15:05:57;1.97;;;1.73;;
8704;SDS011;4389;41.932;25.904;2023-05-07T15:08:24;5.10;;;1.80;;
8704;SDS011;4389;41.932;25.904;2023-05-07T15:10:51;6.73;;;1.80;;